ソルトレイクシティ の空港の天気 - METARとTAF

ソルト・レーク・シティ国際空港 ( KSLC / SLC ) - アメリカ ユタ州ソルトレイクシティ
飛行場実況気象(Metar)
観測時間11/27 00:54 MST (11/27 07:54 UTC)
風向・風速静穏 0m/s
視程10km以上
天気現象
少しの雲 雲底高度 240m
全天の8割程度の雲 雲底高度 520m
全天の8割程度の雲 雲底高度 760m
気温1.1℃
湿度88%
気圧1022.7hPa
METARKSLC 270754Z 00000KT 8SM FEW008 BKN017 BKN025 01/M01 A3019 RMK AO2 SLP227 T00111006
過去の天気等 Google飛行場航空写真 Wunderground天気予報

過去48時間のMETAR

飛行場予報(TAF)
発表時間: 11/26 23:15 MST (11/27 06:15 UTC)
予報対象時間: 26日23時 MST ~ 28日5時 MST
風向・風速南南東 3m/s
視程6440m
天気現象もや
少しの雲 雲底高度 910m
全天の4割程度の雲 雲底高度 1220m
全天の8割程度の雲 雲底高度 1830m
27日8時 MST から
風向・風速南 4m/s
視程10km以上
少しの雲 雲底高度 1220m
全天の8割程度の雲 雲底高度 2130m
27日10時 MST から
風向・風速南 5m/s
視程10km以上
少しの雲 雲底高度 1520m
全天の8割程度の雲 雲底高度 3050m
27日20時 MST から
風向・風速南南東 5m/s
視程10km以上
全天の4割程度の雲 雲底高度 2440m
全天を覆う雲 雲底高度 3050m
KSLC 270615Z 2706/2812 15005KT 4SM BR FEW030 SCT040 BKN060
FM271500 17008KT P6SM FEW040 BKN070
FM271700 18010KT P6SM FEW050 BKN100
FM280300 15009KT P6SM SCT080 OVC100